Time;durP1;ratioP1;P1;durP2;ratioP2;P2;SDS_P1;SDS_P2;PMS_P1;PMS_P2;Temp;Humidity;BMP_temperature;BMP_pressure;BME280_temperature;BME280_humidity;BME280_pressure;Samples;Min_cycle;Max_cycle;Signal;HPM_P1;HPM_P2
2023/04/05 00:00:08;;;;;;;6.60;5.83;;;7.50;43.50;;;;;;5101401;27;20995;-86
2023/04/05 00:02:39;;;;;;;9.40;6.77;;;7.50;44.00;;;;;;5049054;28;20453;-86
2023/04/05 00:05:10;;;;;;;8.40;6.33;;;7.60;44.60;;;;;;5062410;28;20443;-85
2023/04/05 00:07:38;;;;;;;10.03;5.97;;;7.60;44.10;;;;;;5088369;28;20449;-87
2023/04/05 00:10:05;;;;;;;8.50;6.20;;;7.50;43.80;;;;;;5077203;28;20475;-88
2023/04/05 00:12:32;;;;;;;8.63;6.27;;;7.50;43.50;;;;;;5072821;28;20468;-88
2023/04/05 00:15:00;;;;;;;8.90;6.37;;;7.40;43.80;;;;;;5054623;28;20455;-86
2023/04/05 00:17:28;;;;;;;7.43;5.60;;;7.40;44.60;;;;;;5105777;27;20447;-87
2023/04/05 00:19:56;;;;;;;11.27;7.20;;;7.40;44.90;;;;;;5103338;27;20544;-88
2023/04/05 00:22:25;;;;;;;8.73;6.40;;;7.50;44.80;;;;;;5069337;28;20526;-88
2023/04/05 00:24:52;;;;;;;7.40;5.23;;;7.50;44.80;;;;;;5088028;28;20455;-85
2023/04/05 00:27:20;;;;;;;6.07;5.40;;;7.50;44.80;;;;;;5090376;28;20452;-88
2023/04/05 00:29:47;;;;;;;8.40;5.63;;;7.40;44.90;;;;;;5087764;28;20458;-87
2023/04/05 00:32:14;;;;;;;9.47;6.67;;;7.40;44.70;;;;;;5062726;28;20443;-88
2023/04/05 00:34:41;;;;;;;18.90;7.30;;;7.30;44.50;;;;;;5079377;28;20452;-86
2023/04/05 00:37:08;;;;;;;10.03;6.10;;;7.20;44.90;;;;;;5077345;28;20451;-87
2023/04/05 00:39:36;;;;;;;7.83;5.63;;;7.00;45.40;;;;;;5066860;28;20475;-87
2023/04/05 00:42:04;;;;;;;7.10;5.70;;;6.90;45.30;;;;;;5088508;28;20440;-87
2023/04/05 00:44:33;;;;;;;9.37;5.90;;;6.80;45.00;;;;;;5089308;28;20461;-88
2023/04/05 00:47:01;;;;;;;14.07;6.60;;;6.70;44.60;;;;;;5057093;28;20547;-87
2023/04/05 00:49:29;;;;;;;8.57;5.60;;;6.60;45.20;;;;;;5079228;28;21122;-87
2023/04/05 00:51:57;;;;;;;10.13;5.73;;;6.70;45.30;;;;;;5090229;28;20462;-88
2023/04/05 00:54:25;;;;;;;7.63;5.57;;;6.70;45.10;;;;;;5087100;28;20479;-88
2023/04/05 00:56:55;;;;;;;8.53;5.50;;;6.40;45.50;;;;;;5060050;28;20435;-89
2023/04/05 00:59:22;;;;;;;10.17;6.17;;;6.10;46.40;;;;;;5058230;28;20551;-87
2023/04/05 01:01:56;;;;;;;6.47;5.20;;;5.70;47.30;;;;;;5072263;28;20480;-88
2023/04/05 01:04:26;;;;;;;9.13;5.33;;;5.50;47.80;;;;;;5093316;28;20504;-88
2023/04/05 01:07:03;;;;;;;8.43;5.33;;;5.50;48.10;;;;;;5073940;28;20456;-88
2023/04/05 01:09:42;;;;;;;13.63;6.53;;;5.70;47.70;;;;;;5090280;28;20558;-88
2023/04/05 01:12:16;;;;;;;6.63;5.20;;;6.00;47.50;;;;;;5060060;28;20463;-89
2023/04/05 01:14:48;;;;;;;7.00;5.50;;;6.30;47.00;;;;;;5080550;28;20441;-87
2023/04/05 01:17:20;;;;;;;6.03;5.43;;;6.40;46.70;;;;;;5073803;28;20505;-86
2023/04/05 01:19:49;;;;;;;6.77;4.60;;;6.40;46.00;;;;;;5060702;27;21042;-86
2023/04/05 01:22:42;;;;;;;7.00;4.97;;;6.40;45.50;;;;;;5083616;28;20479;-88
2023/04/05 01:25:37;;;;;;;7.30;5.77;;;6.40;46.20;;;;;;5065059;28;20452;-89
2023/04/05 01:28:32;;;;;;;8.27;5.40;;;6.50;46.50;;;;;;5094412;27;20451;-85
2023/04/05 01:31:06;;;;;;;7.30;6.33;;;6.60;46.30;;;;;;5074778;28;20475;-88
2023/04/05 01:33:41;;;;;;;6.20;5.10;;;6.70;46.30;;;;;;5080157;28;20958;-86
2023/04/05 01:36:15;;;;;;;6.87;5.77;;;6.70;46.00;;;;;;5105955;27;20455;-88
2023/04/05 01:38:46;;;;;;;6.10;4.67;;;6.70;46.50;;;;;;5107233;27;20970;-86
2023/04/05 01:41:14;;;;;;;5.87;5.37;;;6.40;46.60;;;;;;5090727;27;20446;-86
2023/04/05 01:43:41;;;;;;;7.30;5.40;;;6.20;46.90;;;;;;5108916;27;20436;-87
2023/04/05 01:46:10;;;;;;;7.10;5.60;;;6.20;46.40;;;;;;5065059;28;20489;-88
2023/04/05 01:48:37;;;;;;;8.33;5.70;;;6.20;46.30;;;;;;5072470;28;20558;-89
2023/04/05 01:51:05;;;;;;;8.03;5.30;;;6.10;46.70;;;;;;5103882;27;20951;-87
2023/04/05 01:53:32;;;;;;;13.40;5.83;;;6.10;46.60;;;;;;5073237;28;20477;-88
2023/04/05 01:56:00;;;;;;;7.43;5.90;;;6.10;46.10;;;;;;5064734;28;20471;-87
2023/04/05 01:58:29;;;;;;;5.83;4.73;;;6.10;46.10;;;;;;5043343;28;20481;-88
2023/04/05 02:00:56;;;;;;;9.03;5.70;;;6.10;46.60;;;;;;5068115;28;20443;-88
2023/04/05 02:03:25;;;;;;;7.93;5.90;;;6.10;46.50;;;;;;5056563;28;20658;-87
2023/04/05 02:05:53;;;;;;;5.67;4.73;;;5.90;47.80;;;;;;5074063;28;20454;-87
2023/04/05 02:08:20;;;;;;;6.53;5.80;;;5.50;48.60;;;;;;5087715;27;20983;-85
2023/04/05 02:10:48;;;;;;;16.80;8.50;;;5.30;49.30;;;;;;5065024;28;20452;-85
2023/04/05 02:13:15;;;;;;;11.87;6.30;;;5.40;49.00;;;;;;5096408;28;21104;-86
2023/04/05 02:15:49;;;;;;;9.80;5.63;;;5.50;47.90;;;;;;5093719;27;20544;-87
2023/04/05 02:18:20;;;;;;;7.03;5.80;;;5.60;47.40;;;;;;5063971;28;20451;-86
2023/04/05 02:20:50;;;;;;;5.97;5.00;;;5.60;47.50;;;;;;5091750;28;20447;-86
2023/04/05 02:23:19;;;;;;;6.63;6.00;;;5.70;47.00;;;;;;5073210;28;20531;-85
2023/04/05 02:25:46;;;;;;;7.10;5.20;;;5.80;47.10;;;;;;5073405;28;20451;-85
2023/04/05 02:28:14;;;;;;;8.43;5.90;;;5.90;47.20;;;;;;5105514;27;20455;-85
2023/04/05 02:30:41;;;;;;;9.20;7.00;;;5.90;46.80;;;;;;5092478;28;20456;-86
2023/04/05 02:33:11;;;;;;;12.83;8.20;;;5.60;46.80;;;;;;5064106;28;20555;-86
2023/04/05 02:35:38;;;;;;;9.80;6.97;;;5.40;47.50;;;;;;5092179;28;20439;-85
2023/04/05 02:38:08;;;;;;;9.10;6.90;;;5.50;47.20;;;;;;5080777;28;20534;-86
2023/04/05 02:40:35;;;;;;;10.70;6.00;;;5.50;47.50;;;;;;5077936;28;20463;-87
2023/04/05 02:43:02;;;;;;;6.50;5.40;;;5.70;47.30;;;;;;5090801;27;20440;-86
2023/04/05 02:45:30;;;;;;;6.70;5.90;;;5.80;46.70;;;;;;5091652;28;20455;-87
2023/04/05 02:47:59;;;;;;;7.90;6.17;;;5.90;47.10;;;;;;5073937;28;20533;-87
2023/04/05 02:50:30;;;;;;;10.20;6.13;;;6.00;46.20;;;;;;5080877;28;20462;-85
2023/04/05 02:52:57;;;;;;;6.87;4.60;;;6.00;45.90;;;;;;5048012;27;20447;-86
2023/04/05 02:55:29;;;;;;;8.33;6.37;;;6.00;45.70;;;;;;5042343;28;20456;-87
2023/04/05 02:58:00;;;;;;;9.90;5.50;;;5.80;46.20;;;;;;5061535;28;20525;-86
2023/04/05 03:00:34;;;;;;;7.77;6.13;;;5.60;46.70;;;;;;5107359;27;20555;-86
2023/04/05 03:03:02;;;;;;;7.73;5.77;;;5.60;47.90;;;;;;5065541;28;20553;-85
2023/04/05 03:05:29;;;;;;;6.50;5.27;;;5.70;47.80;;;;;;5105938;27;20505;-87
2023/04/05 03:07:58;;;;;;;9.57;5.77;;;5.80;47.60;;;;;;5091699;28;20465;-85
2023/04/05 03:10:33;;;;;;;6.27;5.67;;;5.80;47.40;;;;;;5092782;27;20466;-85
2023/04/05 03:13:05;;;;;;;7.37;5.27;;;5.80;47.40;;;;;;5072051;28;22952;-84
2023/04/05 03:15:33;;;;;;;7.80;5.83;;;5.90;47.30;;;;;;5071678;28;20447;-86
2023/04/05 03:18:05;;;;;;;10.43;6.10;;;5.90;47.10;;;;;;5088695;27;20457;-86
2023/04/05 03:20:35;;;;;;;12.17;5.80;;;5.60;47.40;;;;;;5105794;27;20584;-85
2023/04/05 03:23:03;;;;;;;8.20;5.70;;;5.50;47.30;;;;;;5061303;28;20455;-87
2023/04/05 03:25:36;;;;;;;7.80;6.03;;;5.40;47.60;;;;;;5081166;28;20551;-87
2023/04/05 03:28:05;;;;;;;8.57;5.87;;;5.40;48.60;;;;;;5064960;28;20487;-88
2023/04/05 03:30:33;;;;;;;10.90;6.90;;;5.50;48.60;;;;;;5076965;28;20480;-86
2023/04/05 03:33:10;;;;;;;7.70;5.67;;;5.60;48.10;;;;;;5041464;28;20454;-87
2023/04/05 03:35:42;;;;;;;7.40;5.93;;;5.60;48.00;;;;;;5045829;28;20456;-87
2023/04/05 03:38:11;;;;;;;7.30;5.40;;;5.70;48.10;;;;;;5089736;27;20451;-84
2023/04/05 03:40:45;;;;;;;7.30;6.60;;;5.70;47.70;;;;;;5077541;28;20460;-86
2023/04/05 03:43:12;;;;;;;8.83;6.77;;;5.70;47.20;;;;;;5047859;28;20459;-86
2023/04/05 03:45:40;;;;;;;14.13;8.20;;;5.60;47.40;;;;;;5052388;28;20454;-87
2023/04/05 03:48:07;;;;;;;9.50;7.37;;;5.50;47.80;;;;;;5036477;28;21947;-86
2023/04/05 03:50:34;;;;;;;12.63;7.80;;;5.20;49.20;;;;;;5039843;28;20475;-87
2023/04/05 03:53:02;;;;;;;10.13;7.63;;;5.10;49.80;;;;;;5089982;27;20443;-85
2023/04/05 03:55:29;;;;;;;10.50;8.37;;;5.00;48.80;;;;;;5064549;28;20447;-86
2023/04/05 03:57:59;;;;;;;9.43;6.40;;;5.00;48.50;;;;;;5047827;28;20473;-85
2023/04/05 04:00:32;;;;;;;19.50;9.03;;;4.70;49.70;;;;;;5081466;28;20467;-85
2023/04/05 04:03:13;;;;;;;9.10;7.00;;;4.50;50.50;;;;;;5088082;28;20442;-87
2023/04/05 04:05:44;;;;;;;13.43;8.53;;;4.20;51.30;;;;;;5081270;28;20450;-87
2023/04/05 04:08:12;;;;;;;13.93;6.60;;;4.10;51.40;;;;;;5056093;28;20844;-85
2023/04/05 04:10:39;;;;;;;10.87;7.50;;;3.90;51.10;;;;;;5079693;28;20483;-86
2023/04/05 04:13:18;;;;;;;9.47;6.53;;;3.80;51.70;;;;;;5070601;28;20470;-87
2023/04/05 04:15:49;;;;;;;10.90;5.97;;;3.70;52.00;;;;;;5055024;28;20459;-84
2023/04/05 04:18:31;;;;;;;17.53;7.53;;;3.90;51.30;;;;;;5079767;28;20524;-86
2023/04/05 04:21:22;;;;;;;11.83;7.53;;;3.40;51.80;;;;;;5067198;28;20444;-84
2023/04/05 04:24:04;;;;;;;13.10;8.40;;;3.40;51.90;;;;;;5052581;28;20450;-87
2023/04/05 04:26:55;;;;;;;22.70;12.03;;;3.60;51.60;;;;;;5069822;28;20534;-84
2023/04/05 04:29:45;;;;;;;17.43;10.43;;;3.80;51.10;;;;;;5091209;28;20471;-85
2023/04/05 04:32:53;;;;;;;11.17;8.57;;;4.20;50.60;;;;;;5105526;27;20459;-87
2023/04/05 04:35:33;;;;;;;10.10;6.30;;;4.50;49.80;;;;;;5086821;28;20467;-83
2023/04/05 04:38:17;;;;;;;9.63;6.00;;;4.80;48.80;;;;;;5101128;27;20482;-87
2023/04/05 04:41:06;;;;;;;10.30;6.30;;;4.80;48.40;;;;;;5043976;28;20432;-85
2023/04/05 04:43:53;;;;;;;12.17;6.57;;;4.90;47.90;;;;;;5084540;28;20444;-84
2023/04/05 04:46:41;;;;;;;12.30;6.63;;;5.00;47.80;;;;;;5069091;28;20481;-85
2023/04/05 04:49:20;;;;;;;13.17;9.00;;;4.90;47.30;;;;;;5083941;28;20482;-84
2023/04/05 04:51:48;;;;;;;8.37;7.30;;;4.40;47.80;;;;;;5090443;27;20443;-87
2023/04/05 04:54:19;;;;;;;10.23;7.70;;;4.10;48.70;;;;;;5043627;28;20475;-85
2023/04/05 04:56:47;;;;;;;18.00;10.27;;;4.20;48.20;;;;;;5077152;28;20443;-85
2023/04/05 04:59:14;;;;;;;12.70;9.37;;;4.20;47.70;;;;;;5074630;28;20458;-83
2023/04/05 05:01:45;;;;;;;14.17;8.50;;;4.20;47.60;;;;;;5077695;28;20446;-87
2023/04/05 05:04:12;;;;;;;10.60;7.90;;;4.40;47.40;;;;;;5056162;28;20531;-83
2023/04/05 05:06:41;;;;;;;8.87;6.80;;;4.50;48.10;;;;;;5073886;28;20436;-85
2023/04/05 05:09:08;;;;;;;9.83;6.80;;;4.60;48.20;;;;;;5090656;27;20466;-86
2023/04/05 05:11:44;;;;;;;11.23;7.17;;;4.70;48.00;;;;;;5073889;28;20450;-85
2023/04/05 05:14:12;;;;;;;10.53;6.30;;;4.90;47.90;;;;;;5080984;27;20691;-87
2023/04/05 05:16:39;;;;;;;12.17;7.10;;;4.90;47.60;;;;;;5092533;28;20461;-86
2023/04/05 05:19:08;;;;;;;15.33;6.93;;;5.00;47.90;;;;;;5072851;28;20553;-85
2023/04/05 05:21:42;;;;;;;10.53;7.37;;;5.00;46.90;;;;;;5082449;28;20456;-84
2023/04/05 05:24:09;;;;;;;12.60;9.23;;;5.00;46.70;;;;;;5072829;28;20452;-83
2023/04/05 05:26:36;;;;;;;15.47;11.13;;;5.00;46.90;;;;;;5090638;28;20451;-88
2023/04/05 05:29:04;;;;;;;17.83;8.53;;;5.00;47.50;;;;;;5050336;28;20845;-84
2023/04/05 05:31:35;;;;;;;17.23;8.77;;;4.80;48.90;;;;;;5058979;28;20439;-87
2023/04/05 05:34:02;;;;;;;15.77;8.47;;;4.90;48.90;;;;;;5080204;28;20468;-85
2023/04/05 05:36:30;;;;;;;12.00;8.10;;;5.00;48.60;;;;;;5090700;28;20447;-84
2023/04/05 05:38:58;;;;;;;10.00;6.60;;;5.10;48.00;;;;;;5091869;27;20475;-81
2023/04/05 05:41:25;;;;;;;13.03;7.60;;;4.90;47.90;;;;;;5075131;28;20833;-84
2023/04/05 05:43:52;;;;;;;11.00;7.57;;;4.20;49.50;;;;;;5090859;27;20503;-87
2023/04/05 05:46:20;;;;;;;12.07;8.20;;;3.90;50.60;;;;;;5076437;28;20535;-84
2023/04/05 05:48:47;;;;;;;9.00;6.80;;;4.00;50.70;;;;;;5059163;28;20486;-84
2023/04/05 05:51:15;;;;;;;10.50;7.57;;;4.30;50.40;;;;;;5105968;27;21446;-83
2023/04/05 05:53:44;;;;;;;15.60;9.70;;;4.50;49.70;;;;;;5083261;28;20515;-86
2023/04/05 05:56:11;;;;;;;15.13;8.93;;;4.70;49.40;;;;;;5071311;27;20725;-84
2023/04/05 05:58:39;;;;;;;14.87;10.40;;;4.80;49.00;;;;;;5093635;28;20486;-82
2023/04/05 06:01:07;;;;;;;20.43;10.23;;;4.90;48.60;;;;;;5057549;28;20497;-84
2023/04/05 06:03:34;;;;;;;11.20;8.37;;;5.00;48.40;;;;;;5055684;28;20829;-86
2023/04/05 06:06:04;;;;;;;11.70;8.37;;;5.10;48.40;;;;;;5091925;28;20519;-83
2023/04/05 06:08:31;;;;;;;17.33;9.33;;;5.10;48.20;;;;;;5055805;28;20949;-84
2023/04/05 06:11:00;;;;;;;18.87;10.60;;;5.20;48.30;;;;;;5078640;28;20479;-84
2023/04/05 06:13:27;;;;;;;16.43;10.33;;;5.20;48.10;;;;;;5073514;28;20496;-83
2023/04/05 06:15:54;;;;;;;14.13;9.77;;;5.30;48.10;;;;;;5090718;27;20849;-83
2023/04/05 06:18:21;;;;;;;16.00;10.97;;;5.30;48.20;;;;;;5062222;28;20512;-83
2023/04/05 06:20:48;;;;;;;15.07;11.20;;;5.30;48.30;;;;;;5072073;28;20535;-81
2023/04/05 06:23:15;;;;;;;16.03;10.30;;;5.30;48.50;;;;;;5068347;28;20511;-83
2023/04/05 06:25:43;;;;;;;17.23;10.90;;;5.30;48.40;;;;;;5091359;28;20493;-82
2023/04/05 06:28:11;;;;;;;16.93;10.60;;;5.40;48.50;;;;;;5093938;27;21766;-84
2023/04/05 06:30:39;;;;;;;15.97;8.93;;;5.40;48.10;;;;;;5092060;28;20558;-84
2023/04/05 06:33:06;;;;;;;16.17;9.17;;;5.40;48.30;;;;;;5088115;28;20452;-82
2023/04/05 06:35:33;;;;;;;16.73;8.57;;;5.40;48.20;;;;;;5089059;27;20610;-83
2023/04/05 06:38:00;;;;;;;12.77;8.70;;;5.40;48.30;;;;;;5089439;28;20573;-84
2023/04/05 06:40:27;;;;;;;10.97;9.03;;;5.40;48.50;;;;;;5070316;28;20470;-82
2023/04/05 06:42:55;;;;;;;14.63;9.00;;;5.40;48.10;;;;;;5090497;28;20890;-85
2023/04/05 06:45:28;;;;;;;14.17;9.63;;;5.40;48.00;;;;;;5062395;28;20869;-83
2023/04/05 06:47:55;;;;;;;19.40;12.57;;;5.50;48.20;;;;;;5090917;27;20512;-84
2023/04/05 06:50:22;;;;;;;15.97;10.63;;;5.50;48.10;;;;;;5088930;28;20693;-81
2023/04/05 06:52:49;;;;;;;12.30;9.90;;;5.50;47.90;;;;;;5090988;27;20525;-83
2023/04/05 06:55:16;;;;;;;17.23;9.90;;;5.50;48.10;;;;;;5058937;28;20506;-82
2023/04/05 06:57:43;;;;;;;12.03;9.57;;;5.50;48.20;;;;;;5074245;28;20759;-82
2023/04/05 07:00:13;;;;;;;14.77;9.57;;;5.60;48.30;;;;;;5072104;28;20470;-84
2023/04/05 07:02:41;;;;;;;13.60;9.77;;;5.60;48.50;;;;;;5088728;28;20448;-82
2023/04/05 07:05:08;;;;;;;15.00;8.13;;;5.60;48.50;;;;;;5086042;27;20443;-85
2023/04/05 07:07:39;;;;;;;13.30;7.80;;;5.70;48.20;;;;;;5051206;28;20855;-83
2023/04/05 07:10:07;;;;;;;12.10;8.60;;;5.60;47.80;;;;;;5069227;28;20879;-83
2023/04/05 07:12:34;;;;;;;11.27;8.07;;;5.60;48.20;;;;;;5078756;28;20521;-85
2023/04/05 07:15:02;;;;;;;10.23;7.10;;;5.60;48.40;;;;;;5088931;28;20792;-84
2023/04/05 07:17:29;;;;;;;10.43;7.30;;;5.70;48.50;;;;;;5068426;28;20813;-84
2023/04/05 07:19:57;;;;;;;8.33;6.50;;;5.80;48.40;;;;;;5102521;27;20488;-87
2023/04/05 07:22:24;;;;;;;10.40;6.97;;;5.80;48.30;;;;;;5086563;28;20444;-84
2023/04/05 07:24:52;;;;;;;13.63;7.40;;;5.90;48.30;;;;;;5071176;28;20992;-83
2023/04/05 07:27:19;;;;;;;10.60;7.40;;;6.00;48.30;;;;;;5072046;28;20497;-85
2023/04/05 07:29:47;;;;;;;9.23;7.30;;;6.10;48.40;;;;;;5080198;28;20574;-86
2023/04/05 07:32:14;;;;;;;13.33;7.53;;;6.10;48.00;;;;;;5086625;27;20577;-86
2023/04/05 07:34:41;;;;;;;10.17;7.20;;;6.10;47.60;;;;;;5069770;28;21132;-84
2023/04/05 07:37:10;;;;;;;13.57;7.30;;;5.80;47.00;;;;;;5086395;27;20458;-83
2023/04/05 07:39:37;;;;;;;13.77;7.97;;;5.70;47.10;;;;;;5102818;27;20473;-84
2023/04/05 07:42:04;;;;;;;10.90;7.43;;;5.70;47.60;;;;;;5068968;28;20994;-85
2023/04/05 07:44:31;;;;;;;12.50;8.60;;;5.80;48.40;;;;;;5072213;28;20501;-84
2023/04/05 07:46:58;;;;;;;11.20;7.77;;;6.00;48.40;;;;;;5087379;27;20432;-83
2023/04/05 07:49:26;;;;;;;8.17;6.60;;;6.10;48.50;;;;;;5100655;27;20472;-84
2023/04/05 07:51:55;;;;;;;10.83;6.57;;;6.30;48.30;;;;;;5087656;28;20444;-85
2023/04/05 07:54:24;;;;;;;9.67;6.27;;;6.40;48.00;;;;;;5059946;28;20451;-85
2023/04/05 07:56:51;;;;;;;8.13;5.97;;;6.40;47.00;;;;;;5069799;28;21005;-84
2023/04/05 07:59:18;;;;;;;6.83;6.10;;;6.40;47.10;;;;;;5102237;27;20474;-84
2023/04/05 08:01:45;;;;;;;6.37;5.77;;;6.50;47.20;;;;;;5086868;28;20444;-83
2023/04/05 08:04:13;;;;;;;7.90;5.50;;;6.70;46.70;;;;;;5087131;28;20442;-84
2023/04/05 08:06:40;;;;;;;13.13;6.20;;;6.80;46.10;;;;;;5105747;27;20447;-83
2023/04/05 08:09:07;;;;;;;5.77;4.70;;;6.80;45.30;;;;;;5071565;28;21028;-83
2023/04/05 08:11:36;;;;;;;12.07;5.23;;;6.70;44.10;;;;;;5088094;28;20470;-84
2023/04/05 08:14:03;;;;;;;4.50;3.90;;;6.70;44.90;;;;;;5088555;28;20861;-84
2023/04/05 08:16:30;;;;;;;6.00;3.87;;;6.60;43.10;;;;;;5088498;28;21051;-83
2023/04/05 08:18:57;;;;;;;8.23;5.07;;;6.40;42.80;;;;;;5089583;28;20498;-83
2023/04/05 08:21:25;;;;;;;5.97;4.70;;;6.60;43.90;;;;;;5089471;28;20453;-84
2023/04/05 08:23:52;;;;;;;5.40;4.80;;;6.70;43.20;;;;;;5070588;28;20483;-85
2023/04/05 08:26:19;;;;;;;7.70;4.30;;;7.00;43.90;;;;;;5091171;28;20463;-85
2023/04/05 08:28:47;;;;;;;7.70;4.97;;;7.10;43.30;;;;;;5074995;28;20475;-85
2023/04/05 08:31:15;;;;;;;6.47;4.60;;;7.50;44.20;;;;;;5092353;27;20463;-85
2023/04/05 08:33:42;;;;;;;5.87;4.10;;;7.50;42.40;;;;;;5090237;27;21219;-84
2023/04/05 08:36:10;;;;;;;8.97;5.20;;;7.70;42.40;;;;;;5091327;27;21058;-84
2023/04/05 08:38:37;;;;;;;4.10;3.80;;;7.70;42.10;;;;;;5074214;28;20467;-86
2023/04/05 08:41:08;;;;;;;4.63;4.10;;;7.80;41.50;;;;;;5089752;28;20532;-85
2023/04/05 08:43:46;;;;;;;7.57;4.67;;;7.80;41.50;;;;;;5089140;27;20991;-86
2023/04/05 08:46:17;;;;;;;5.47;3.90;;;8.20;41.80;;;;;;5088551;28;20465;-88
2023/04/05 08:48:45;;;;;;;6.20;4.23;;;8.40;40.60;;;;;;5080121;28;20991;-85
2023/04/05 08:51:12;;;;;;;7.70;4.37;;;8.50;38.80;;;;;;5062478;27;20474;-86
2023/04/05 08:53:39;;;;;;;5.67;4.30;;;8.40;39.10;;;;;;5075720;28;21001;-86
2023/04/05 08:56:08;;;;;;;4.87;4.37;;;8.20;39.80;;;;;;5057847;28;20714;-86
2023/04/05 08:58:37;;;;;;;5.00;4.03;;;8.20;39.90;;;;;;5060695;28;20629;-86
2023/04/05 09:01:06;;;;;;;5.47;4.20;;;8.20;40.70;;;;;;5072499;27;20458;-85
2023/04/05 09:03:37;;;;;;;4.60;4.20;;;8.60;39.90;;;;;;5088131;27;20960;-85
2023/04/05 09:06:09;;;;;;;6.63;4.20;;;8.60;39.10;;;;;;5062871;27;20444;-87
2023/04/05 09:08:36;;;;;;;6.83;5.00;;;8.90;39.70;;;;;;5073156;28;20965;-88
2023/04/05 09:11:03;;;;;;;7.70;6.07;;;9.20;38.80;;;;;;5054542;28;20459;-85
2023/04/05 09:13:31;;;;;;;6.97;4.70;;;8.90;38.50;;;;;;5072907;28;20562;-86
2023/04/05 09:16:01;;;;;;;6.60;5.23;;;9.10;39.10;;;;;;5087949;28;21172;-86
2023/04/05 09:18:28;;;;;;;5.30;4.33;;;9.40;38.30;;;;;;5060212;28;20462;-87
2023/04/05 09:21:04;;;;;;;4.33;3.93;;;9.50;38.40;;;;;;5089714;28;20542;-87
2023/04/05 09:23:31;;;;;;;6.30;4.30;;;9.80;38.20;;;;;;5089664;28;20457;-87
2023/04/05 09:25:59;;;;;;;4.97;4.00;;;9.70;36.60;;;;;;5091345;27;20500;-88
2023/04/05 09:28:41;;;;;;;6.20;4.20;;;10.10;36.20;;;;;;5049271;28;20447;-88
2023/04/05 09:31:09;;;;;;;7.80;4.50;;;10.40;36.90;;;;;;5061662;27;20456;-89
2023/04/05 09:33:36;;;;;;;11.20;3.50;;;10.70;35.20;;;;;;5063420;28;20462;-88
2023/04/05 09:36:05;;;;;;;5.13;4.30;;;10.30;34.10;;;;;;5080448;28;20490;-85
2023/04/05 09:38:46;;;;;;;4.77;4.27;;;9.90;37.60;;;;;;5079783;28;20551;-84
2023/04/05 09:41:13;;;;;;;5.70;4.70;;;10.00;36.10;;;;;;5088370;27;20817;-84
2023/04/05 09:43:42;;;;;;;10.40;4.37;;;10.20;35.60;;;;;;5089048;27;20546;-84
2023/04/05 09:46:30;;;;;;;5.47;4.27;;;10.60;36.80;;;;;;5093179;27;20908;-84
2023/04/05 09:48:57;;;;;;;6.47;4.40;;;11.00;33.90;;;;;;5089674;27;20802;-83
2023/04/05 09:51:32;;;;;;;5.20;4.37;;;11.00;33.70;;;;;;5086778;28;20452;-83
2023/04/05 09:54:01;;;;;;;5.47;5.00;;;10.80;32.20;;;;;;5089829;28;20504;-84
2023/04/05 09:56:30;;;;;;;6.90;5.33;;;11.10;33.80;;;;;;5055890;28;20462;-85
2023/04/05 09:59:03;;;;;;;9.40;5.70;;;11.50;32.20;;;;;;5093002;27;20476;-84
2023/04/05 10:01:34;;;;;;;9.67;5.13;;;11.50;32.40;;;;;;5075340;28;20443;-84
2023/04/05 10:04:01;;;;;;;5.03;4.53;;;11.50;31.60;;;;;;5092399;28;20455;-86
2023/04/05 10:06:37;;;;;;;6.60;4.10;;;11.40;32.40;;;;;;5090738;27;20456;-86
2023/04/05 10:09:05;;;;;;;6.63;4.83;;;11.40;32.40;;;;;;5090195;27;20508;-85
2023/04/05 10:11:33;;;;;;;6.30;4.33;;;11.60;33.00;;;;;;5074208;28;20447;-84
2023/04/05 10:14:02;;;;;;;5.63;4.60;;;11.90;32.40;;;;;;5090071;28;20466;-86
2023/04/05 10:16:33;;;;;;;7.07;3.70;;;11.80;31.40;;;;;;5089963;27;20489;-84
2023/04/05 10:19:01;;;;;;;4.77;4.20;;;11.50;31.10;;;;;;5091571;28;20550;-85
2023/04/05 10:21:31;;;;;;;9.40;5.50;;;11.70;32.60;;;;;;5089569;28;20485;-83
2023/04/05 10:24:09;;;;;;;5.20;4.40;;;11.50;30.00;;;;;;5091687;27;20440;-85
2023/04/05 10:26:41;;;;;;;7.30;5.00;;;10.80;32.50;;;;;;5091394;27;20504;-87
2023/04/05 10:29:13;;;;;;;6.97;5.20;;;11.10;33.20;;;;;;5108711;27;20805;-85
2023/04/05 10:31:50;;;;;;;6.83;4.50;;;11.70;31.90;;;;;;5093219;28;20443;-84
2023/04/05 10:34:28;;;;;;;7.00;4.90;;;11.80;30.10;;;;;;5089474;28;20531;-85
2023/04/05 10:36:59;;;;;;;7.20;5.40;;;11.30;30.00;;;;;;5093444;28;20543;-84
2023/04/05 10:39:29;;;;;;;5.07;4.47;;;11.10;30.40;;;;;;5071192;28;20477;-85
2023/04/05 10:42:01;;;;;;;7.20;4.97;;;11.20;31.60;;;;;;5089500;27;20562;-83
2023/04/05 10:44:32;;;;;;;6.83;4.80;;;11.80;32.30;;;;;;5089440;27;20458;-83
2023/04/05 10:47:00;;;;;;;6.20;4.70;;;12.40;30.50;;;;;;5090987;28;20462;-85
2023/04/05 10:49:34;;;;;;;8.53;5.00;;;12.60;29.50;;;;;;5085892;28;20475;-83
2023/04/05 10:52:02;;;;;;;7.20;4.90;;;12.90;29.30;;;;;;5093670;27;20465;-86
2023/04/05 10:54:33;;;;;;;7.13;5.20;;;13.30;28.80;;;;;;5058426;28;20682;-85
2023/04/05 10:57:03;;;;;;;8.33;4.97;;;13.70;29.10;;;;;;5089601;28;20471;-84
2023/04/05 10:59:30;;;;;;;6.07;5.07;;;13.70;27.90;;;;;;5089731;27;20569;-86
2023/04/05 11:01:58;;;;;;;5.80;4.80;;;13.60;28.40;;;;;;5092295;28;20578;-84
2023/04/05 11:04:25;;;;;;;7.30;4.77;;;13.40;28.00;;;;;;5059702;28;20512;-85
2023/04/05 11:07:11;;;;;;;8.30;5.27;;;13.30;28.10;;;;;;5081649;28;20558;-83
2023/04/05 11:09:50;;;;;;;8.07;5.63;;;13.40;28.50;;;;;;5077945;28;20580;-84
2023/04/05 11:12:17;;;;;;;6.93;5.37;;;13.90;28.30;;;;;;5081644;28;20463;-84
2023/04/05 11:14:44;;;;;;;4.97;4.47;;;14.50;28.60;;;;;;5089695;28;20469;-84
2023/04/05 11:17:25;;;;;;;5.63;5.10;;;14.80;27.20;;;;;;5088758;28;20855;-83
2023/04/05 11:19:57;;;;;;;7.93;5.90;;;14.70;26.70;;;;;;5093055;28;20539;-84
2023/04/05 11:22:27;;;;;;;7.67;5.73;;;14.10;28.10;;;;;;5090226;27;20521;-83
2023/04/05 11:25:00;;;;;;;14.40;5.80;;;13.50;27.90;;;;;;5090363;28;20511;-84
2023/04/05 11:27:29;;;;;;;8.30;5.00;;;13.50;28.20;;;;;;5090179;28;20456;-82
2023/04/05 11:29:57;;;;;;;6.97;5.30;;;14.10;29.50;;;;;;5092707;28;20468;-83
2023/04/05 11:32:37;;;;;;;5.07;4.60;;;14.50;27.50;;;;;;5092366;27;20450;-82
2023/04/05 11:35:06;;;;;;;6.57;5.10;;;14.20;26.60;;;;;;5091211;27;20570;-82
2023/04/05 11:37:57;;;;;;;6.00;5.40;;;14.40;27.80;;;;;;5088714;28;20464;-83
2023/04/05 11:40:27;;;;;;;6.70;5.10;;;14.50;26.50;;;;;;5088638;27;20574;-83
2023/04/05 11:43:12;;;;;;;4.97;4.50;;;13.90;27.20;;;;;;5090746;28;20443;-84
2023/04/05 11:45:40;;;;;;;6.70;4.90;;;14.10;27.60;;;;;;5088489;28;20497;-84
2023/04/05 11:48:09;;;;;;;6.70;5.87;;;14.20;26.80;;;;;;5091283;28;20455;-84
2023/04/05 11:50:38;;;;;;;6.77;5.37;;;14.10;27.50;;;;;;5089612;28;20502;-86
2023/04/05 11:53:08;;;;;;;7.47;5.47;;;13.90;27.40;;;;;;5092483;28;20459;-83
2023/04/05 11:55:37;;;;;;;9.60;5.13;;;13.90;28.40;;;;;;5070704;28;20452;-85
2023/04/05 11:58:12;;;;;;;5.87;5.27;;;14.70;28.30;;;;;;5086625;28;20440;-82
2023/04/05 12:00:39;;;;;;;5.90;4.80;;;15.30;26.50;;;;;;5068337;28;20477;-83
2023/04/05 12:03:06;;;;;;;6.80;5.37;;;15.40;27.50;;;;;;5087011;28;20520;-81
2023/04/05 12:05:51;;;;;;;5.43;4.83;;;15.80;26.90;;;;;;5075674;28;20459;-82
2023/04/05 12:08:19;;;;;;;10.23;5.60;;;15.70;26.10;;;;;;5075920;28;20456;-83
2023/04/05 12:10:55;;;;;;;10.40;6.90;;;15.70;26.50;;;;;;5083142;28;20454;-84
2023/04/05 12:13:29;;;;;;;8.27;5.53;;;15.40;25.50;;;;;;5085758;28;20472;-83
2023/04/05 12:15:59;;;;;;;14.27;6.23;;;14.90;25.90;;;;;;5072317;28;20621;-83
2023/04/05 12:18:26;;;;;;;6.47;5.00;;;14.90;26.80;;;;;;5086603;28;20496;-83
2023/04/05 12:20:53;;;;;;;5.73;5.13;;;14.50;26.30;;;;;;5070737;28;20923;-83
2023/04/05 12:23:21;;;;;;;5.53;4.97;;;14.50;26.60;;;;;;5089929;28;20438;-83
2023/04/05 12:25:49;;;;;;;7.50;5.43;;;14.50;26.50;;;;;;5075149;28;20533;-82
2023/04/05 12:28:17;;;;;;;10.33;5.70;;;14.30;26.90;;;;;;5086203;28;20539;-83
2023/04/05 12:30:51;;;;;;;7.00;5.10;;;14.50;27.30;;;;;;5060753;28;21045;-85
2023/04/05 12:33:29;;;;;;;9.33;5.17;;;14.90;26.10;;;;;;5088909;28;21038;-84
2023/04/05 12:35:56;;;;;;;6.37;5.67;;;14.00;26.40;;;;;;5090931;28;20447;-83
2023/04/05 12:38:26;;;;;;;9.40;5.63;;;13.60;27.10;;;;;;5088074;28;20446;-82
2023/04/05 12:40:54;;;;;;;13.00;6.90;;;13.40;27.40;;;;;;5091734;28;20440;-83
2023/04/05 12:43:23;;;;;;;35.20;14.93;;;13.90;27.70;;;;;;5088880;28;20463;-85
2023/04/05 12:45:54;;;;;;;16.17;8.27;;;14.10;26.50;;;;;;5071768;28;20554;-83
2023/04/05 12:48:24;;;;;;;7.90;5.60;;;14.40;27.10;;;;;;5086619;28;20470;-83
2023/04/05 12:50:53;;;;;;;27.90;13.10;;;14.50;26.10;;;;;;5072832;28;20460;-84
2023/04/05 12:53:22;;;;;;;52.87;18.93;;;14.30;26.50;;;;;;5090705;28;20440;-82
2023/04/05 12:55:51;;;;;;;11.10;7.23;;;13.90;25.10;;;;;;5088819;28;20452;-84
2023/04/05 12:58:19;;;;;;;6.90;5.53;;;14.00;26.40;;;;;;5089538;28;20722;-83
2023/04/05 13:00:47;;;;;;;5.50;4.67;;;13.60;26.30;;;;;;5089546;28;20860;-84
2023/04/05 13:03:19;;;;;;;4.93;4.40;;;13.80;26.80;;;;;;5069884;28;20501;-84
2023/04/05 13:05:48;;;;;;;6.63;5.47;;;14.00;27.30;;;;;;5078108;28;21018;-83